Skip Navigation Links
NOAA logo - Click to go to the NOAA homepage
NOAA's National Weather Service
Alaska Aviation Weather Unit
  NWS logo - Click to go to the NWS homepage
Left Navbar Graphic     03 AKDT = 11 GMT

   
NOAA is celebrating 200 years of science, service, and stewardship. Visit the NOAA 200th celebration Web site to learn more.
USA.gov is the U.S. Government's official Web portal to all Federal, state and local government Web resources and services.
Facebook
NWS on Facebook

AAWU Home :: Display TAF Add Bookmark
TAF PAUN 290520Z 2906/3006 23006KT P6SM FEW100 SCT200=

METAR PAUN 290556Z AUTO 09003KT 10SM CLR M18/M21 A2981 RMK AO2 SLP099 T11831206 11122 21183 53008 FZRANO= METAR PAUN 290656Z AUTO 27003KT 10SM CLR M18/M20 A2982 RMK AO2 SLP102 T11831200 FZRANO= METAR PAUN 290756Z AUTO 00000KT 10SM CLR M21/M23 A2983 RMK AO2 SLP105 T12111233 FZRANO= METAR PAUN 290856Z AUTO 00000KT 10SM CLR M21/M23 A2983 RMK AO2 SLP107 T12111233 411221228 51007 FZRANO= METAR PAUN 290956Z AUTO 00000KT 10SM CLR M23/M26 A2983 RMK AO2 SLP107 T12331256 FZRANO= METAR PAUN 291056Z AUTO 00000KT 10SM CLR M24/M27 A2984 RMK AO2 SLP109 T12391267 FZRANO=
 Alaska TAF Map

NOAA's National Weather Service
Alaska Aviation Weather Unit
6930 Sand Lake Road
Anchorage, AK 99502-1845
Disclaimer
Credits
Glossary
Privacy Policy
About Us
Career Opportunities
Contact AAWU Internet Services Site last modified: April, 17th 2012